Terminal Aerodrome Forecast
Issued by NWS

Home | Current Version | Previous Version | Text Only | Print | Product List | Glossary On
Versions: 1 2 3 4 5 6 7 8 9 10 11 12 13 14 15 16 17 18
000
FTUS43 KGLD 162201 AAB
TAFMCK
TAF AMD
KMCK 162201Z 1622/1718 34010G16KT 6SM -SHSN BR OVC025
     FM162300 34011KT 6SM -SHSN SCT003 OVC010
     FM170600 31009KT P6SM VCSH SCT015 BKN040=

USA.gov is the U.S. government's official web portal to all federal, state and local government web resources and services.